• Join FlightAware (Why Join?)
  • Login
  • US Flag 
04:31AM EDT


 

Airport Tracker/Info


-or-


 

Live Flight TrackerFlight Track Log ✈ UAL5848 ✈ 02-May-2013 ✈ KMLI - KORD

Flight Track Log - Related Links

Times and Time Zones

All times are in EDT time to prevent confusion due to time zone crossing. See the UAL5848 flight status page for this flight to view local times or setup timezone preferences in your user account.

Time Position Orientation Groundspeed Altitude Reporting Facility
EDT Latitude Longitude Course Direction KTS MPH feet Rate Location/Type
12:42PM 41.4442 -90.6061 90° East 256 295 4,000  Level Chicago Center
12:43PM 41.3814 -90.5800 163° South 248 285 6,100 2,280 Climbing Chicago Center
12:44PM 41.4333 -90.1996 90° East  Level FlightAware Approximate
12:44PM 41.3525 -90.4997 116° Southeast 255 293 8,800  Level Chicago Center
12:45PM 41.4333 -90.1245 90° East  Level FlightAware Approximate
12:45PM 41.3644 -90.3936 81° East 280 322 10,600  Level Chicago Center
12:46PM 41.4333 -90.0494 90° East  Level FlightAware Approximate
12:46PM 41.3742 -90.2506 85° East 321 369 11,500  Level Chicago Center
12:47PM 41.4334 -89.9412 90° East  Level FlightAware Approximate
12:47PM 41.3856 -90.1158 84° East 360 414 12,900  Level Chicago Center
12:48PM 41.3975 -89.9797 83° East 366 421 14,400 960 Climbing Chicago Center
12:49PM 41.4089 -89.8394 84° East 375 432 15,000 240 Climbing Chicago Center
12:50PM 41.4242 -89.6964 82° East 385 443 15,000 -60 Level Chicago Center
12:52PM 41.4889 -89.4247 72° East 382 440 14,900 -60 Descending Chicago Center
12:53PM 41.5136 -89.2569 79° East 384 442 14,900  Level Chicago Center
12:54PM 41.5136 -89.1303 90° East 374 430 14,900 -60 Level Chicago Center
12:55PM 41.5139 -88.9919 90° East 374 430 14,800 -1,260 Descending Chicago Center
12:57PM 41.4845 -88.8399 82° East  Level FlightAware Approximate
12:57PM 41.5375 -88.7153 82° East 342 394 11,100  Level Chicago Center
12:58PM 41.5600 -88.6061 75° East 308 354 11,000 -60 Descending Chicago Center
12:59PM 41.5883 -88.5164 67° East 269 310 11,000 -300 Level Chicago Center
01:00PM 41.6261 -88.4347 58° Northeast 261 300 10,400 -780 Descending Chicago Center
01:01PM 41.6519 -88.3517 67° East 244 281 9,400 -1,140 Descending Chicago Center
01:02PM 41.6761 -88.2469 73° East 243 280 8,100 -1,260 Descending Chicago Center
01:03PM 41.7150 -88.1797 52° Northeast 245 282 6,800 -1,200 Descending Chicago Center
01:04PM 41.7644 -88.1225 41° Northeast 237 273 5,700 -1,080 Descending Chicago Center
01:05PM 41.8056 -88.0733 42° Northeast 214 246 4,600 -1,080 Descending Chicago Center
01:07PM 41.8472 -88.0256 40° Northeast 206 237 3,500 -1,140 Descending Chicago Center
01:07PM 41.8833 -87.9833 41° Northeast 193 222 2,400 -1,200 Descending Chicago TRACON